Detall de PIREP

Printer-friendly versionPDF version

[2010/11/14 07:55:00]
Flight IATA:CT2101
Pilot Number:026
Company ICAO:CAT
Aircraft Type:DC85/A
PAX:136
Departing Airport: LEAS
Destination Airport: LEVC
Alternate Airport:LEMD
Online: VATSIM
Route:XONDA/N380F220 R107 ROVAK/N430F340 UM30 ZMR UL155
Flight Level:FL340
No Slew and time accel
No pause
Crash detect
Detect pilot in Cockpit between each 30 and 45 minutes
07:55 Zero fuel Weight: 179383 Lbs, Fuel Weight: 29980 Lbs
07:55 VATSIM:LEAS 140730Z 24010KT 210V280 9999 SCT020 SCT080 11/08 Q1003 NOSIG
07:55 VATSIM:LEVC 140730Z 00000KT CAVOK 13/08 Q1009 NOSIG
07:55 VOICE CATALONIAN / LEVC HUB ROUTE
08:02 Parking Brakes off
08:06 Take-off
08:06 Take off Weight: 208244 Lbs
08:06 Wind: 274º @ 010 Knots Heading: 286º
08:06 POS N43º 33´ 57´´ W006º 02´ 42´´
08:06 Flaps:2 at 168 Knots
08:06 Gear Up: 172 Knots
08:07 Flaps:1 at 175 Knots
08:08 Flaps:0 at 190 Knots
08:21 Wind:269º@052 Knots Heading: 179º Ground Speed: 462 Knots Altitude 24324 ft
08:28 TOC
08:28 Fuel Weight: 22415 Lb
08:36 Wind:231º@021 Knots Heading: 140º Ground Speed: 484 Knots Altitude 33825 ft
08:42 TOD
08:42 Fuel Weight: 19228 Lb
08:51 Wind:180º@004 Knots Heading: 113º Ground Speed: 372 Knots Altitude 21338 ft
09:06 Wind:280º@003 Knots Heading: 119º Ground Speed: 270 Knots Altitude 5994 ft
09:10 Flaps:1 at 218 Knots
09:10 Gear Down: 218 Knots
09:10 Flaps:2 at 218 Knots
09:11 Flaps:3 at 163 Knots
09:12 Flaps:4 at 155 Knots
09:13 Flaps:5 at 144 Knots
09:14 TouchDown:Rate -186 ft/min Speed: 126 Knots
09:14 VATSIM:LEVC 140900Z 00000KT CAVOK 16/08 Q1009 NOSIG
09:14 Land
09:14 Wind:255º@000 Knots
09:14 Heading: 117º
09:14 Flight Duration: 01:08
09:14 Landing Weight: 195281 Lbs
09:14 POS N39º 29´ 22´´ W000º 28´ 55´´
09:16 Parking brakes on
09:16 Block to Block Duration: 01:14
09:16 Final Fuel: 16003 Lbls
09:16 Spent Fuel: 13977 Lbls
09:16 Flight Length: 419 NM
09:16 TOD Land Length: 169 NM

Exportar CSV

Powered by Drupal - Modified by Danger4k